createdAt,value
2022-09-20T00:02:01.025Z,68.32
2022-09-20T00:04:27.633Z,68.49
2022-09-20T00:06:54.163Z,68.46
2022-09-20T00:09:20.798Z,68.25
2022-09-20T00:11:48.952Z,68.41
2022-09-20T00:14:15.498Z,68.14
2022-09-20T00:16:42.302Z,68.08
2022-09-20T00:19:16.861Z,68.13
2022-09-20T00:21:43.444Z,67.94
2022-09-20T00:24:10.636Z,67.60
2022-09-20T00:26:37.141Z,67.52
2022-09-20T00:29:05.471Z,67.67
2022-09-20T00:31:32.177Z,67.79
2022-09-20T00:33:59.331Z,67.28
2022-09-20T00:36:26.143Z,67.39
2022-09-20T00:38:55.767Z,67.46
2022-09-20T00:41:22.343Z,67.74
2022-09-20T00:43:48.833Z,67.50
2022-09-20T00:46:24.735Z,67.25
2022-09-20T00:48:55.051Z,67.39
2022-09-20T00:51:26.543Z,67.13
2022-09-20T00:53:58.718Z,67.10
2022-09-20T00:56:29.524Z,67.13
2022-09-20T00:59:04.192Z,67.24
2022-09-20T01:01:32.554Z,66.90
2022-09-20T01:04:00.076Z,66.76
2022-09-20T01:06:26.988Z,66.92
2022-09-20T01:08:56.478Z,66.87
2022-09-20T01:11:23.349Z,66.84
2022-09-20T01:13:50.472Z,66.92
2022-09-20T01:16:18.882Z,66.99
2022-09-20T01:18:49.561Z,66.86
2022-09-20T01:21:18.043Z,66.81
2022-09-20T01:23:51.411Z,66.99
2022-09-20T01:26:37.747Z,66.96
2022-09-20T01:29:15.381Z,66.91
2022-09-20T01:31:46.257Z,66.51
2022-09-20T01:34:15.282Z,66.63
2022-09-20T01:36:49.421Z,66.39
2022-09-20T01:39:30.440Z,66.50
2022-09-20T01:41:58.874Z,66.68
2022-09-20T01:44:34.723Z,66.80
2022-09-20T01:47:05.642Z,66.96
2022-09-20T01:49:42.409Z,66.91
2022-09-20T01:52:45.132Z,67.11
2022-09-20T01:55:44.504Z,67.25
2022-09-20T01:58:46.958Z,67.48
2022-09-20T02:01:41.143Z,67.86
2022-09-20T02:04:33.630Z,68.19
2022-09-20T02:07:17.405Z,68.44
2022-09-20T02:10:10.865Z,68.40
2022-09-20T02:12:52.341Z,68.51
2022-09-20T02:15:33.649Z,68.65
2022-09-20T02:18:14.206Z,68.70
2022-09-20T02:20:48.009Z,68.57
2022-09-20T02:23:29.521Z,69.21
2022-09-20T02:26:11.485Z,69.29
2022-09-20T02:28:52.963Z,69.23
2022-09-20T02:31:33.489Z,69.27
2022-09-20T02:34:26.232Z,69.38
2022-09-20T02:37:07.923Z,69.24
2022-09-20T02:39:37.138Z,69.33
2022-09-20T02:42:12.214Z,69.62
2022-09-20T02:45:00.099Z,69.27
2022-09-20T02:47:33.302Z,69.21
2022-09-20T02:50:13.271Z,69.56
2022-09-20T02:52:49.530Z,69.48
2022-09-20T02:55:18.870Z,68.81
2022-09-20T02:57:55.464Z,69.24
2022-09-20T03:00:24.937Z,69.12
2022-09-20T03:03:06.096Z,69.10
2022-09-20T03:05:46.292Z,68.79
2022-09-20T03:08:29.643Z,69.14
2022-09-20T03:11:06.303Z,68.96
2022-09-20T03:13:53.328Z,69.10
2022-09-20T03:16:31.077Z,69.18
2022-09-20T03:19:04.810Z,69.23
2022-09-20T03:21:47.080Z,68.75
2022-09-20T03:24:24.019Z,68.74
2022-09-20T03:26:56.048Z,69.10
2022-09-20T03:29:40.702Z,69.37
2022-09-20T03:32:21.183Z,68.77
2022-09-20T03:34:57.231Z,68.69
2022-09-20T03:37:42.258Z,68.52
2022-09-20T03:40:25.886Z,68.63
2022-09-20T03:42:53.505Z,68.54
2022-09-20T03:45:53.736Z,68.68
2022-09-20T03:48:56.260Z,68.53
2022-09-20T03:51:33.889Z,68.56
2022-09-20T03:54:42.249Z,68.32
2022-09-20T03:57:34.248Z,68.10
2022-09-20T04:00:13.486Z,68.27
2022-09-20T04:02:55.378Z,68.02
2022-09-20T04:05:33.798Z,68.19
2022-09-20T04:08:13.801Z,68.06
2022-09-20T04:10:52.765Z,68.30
2022-09-20T04:13:30.750Z,68.01
2022-09-20T04:16:05.223Z,67.89
2022-09-20T04:18:38.287Z,67.61
2022-09-20T04:21:16.982Z,67.97
2022-09-20T04:23:50.704Z,67.67
2022-09-20T04:26:24.555Z,67.95
2022-09-20T04:28:56.610Z,68.09
2022-09-20T04:31:33.773Z,68.70
2022-09-20T04:34:04.509Z,68.11
2022-09-20T04:36:53.231Z,67.90
2022-09-20T04:39:31.426Z,67.98
2022-09-20T04:42:41.230Z,67.80
2022-09-20T04:45:49.159Z,67.89
2022-09-20T04:48:57.294Z,67.47
2022-09-20T04:51:54.591Z,67.77
2022-09-20T04:54:53.777Z,67.82
2022-09-20T04:57:47.199Z,67.88
2022-09-20T05:00:17.359Z,67.93
2022-09-20T05:03:17.390Z,67.62
2022-09-20T05:06:10.807Z,67.72
2022-09-20T05:09:14.051Z,68.44
2022-09-20T05:12:01.828Z,67.80
2022-09-20T05:15:12.682Z,67.89
2022-09-20T05:17:53.820Z,67.42
2022-09-20T05:20:55.408Z,67.26
2022-09-20T05:26:37.364Z,66.87
2022-09-20T05:32:02.031Z,67.32
2022-09-20T05:34:38.901Z,67.22
2022-09-20T05:37:16.061Z,67.16
2022-09-20T05:39:52.258Z,67.23
2022-09-20T05:42:23.496Z,67.04
2022-09-20T05:45:16.223Z,66.41
2022-09-20T05:47:54.027Z,66.60
2022-09-20T05:50:39.285Z,66.31
2022-09-20T05:53:36.470Z,66.05
2022-09-20T05:56:12.784Z,65.99
2022-09-20T05:58:54.436Z,65.97
2022-09-20T06:01:26.149Z,65.51
2022-09-20T06:04:07.616Z,65.60
2022-09-20T06:06:47.038Z,65.59
2022-09-20T06:09:44.469Z,64.97
2022-09-20T06:12:37.276Z,64.79
2022-09-20T06:15:16.748Z,64.57
2022-09-20T06:17:51.138Z,64.38
2022-09-20T06:20:28.017Z,64.26
2022-09-20T06:22:56.601Z,64.08
2022-09-20T06:25:26.315Z,63.69
2022-09-20T06:27:55.919Z,63.86
2022-09-20T06:30:26.338Z,62.75
2022-09-20T06:32:57.813Z,62.23
2022-09-20T06:35:31.927Z,61.92
2022-09-20T06:38:15.791Z,61.94
2022-09-20T06:40:46.327Z,62.08
2022-09-20T06:43:14.498Z,60.99
2022-09-20T06:45:41.168Z,61.38
2022-09-20T06:48:07.809Z,60.50
2022-09-20T06:50:35.930Z,60.60
2022-09-20T06:53:02.679Z,60.13
2022-09-20T06:55:32.530Z,59.48
2022-09-20T06:57:59.160Z,58.97
2022-09-20T07:00:25.733Z,58.18
2022-09-20T07:02:52.320Z,58.17
2022-09-20T07:05:19.153Z,57.94
2022-09-20T07:07:47.253Z,57.56
2022-09-20T07:10:14.252Z,57.40
2022-09-20T07:12:41.239Z,56.00
2022-09-20T07:15:08.883Z,54.07
2022-09-20T07:17:35.464Z,52.47
2022-09-20T07:20:02.841Z,51.66
2022-09-20T07:22:29.513Z,51.19
2022-09-20T07:24:57.436Z,52.17
2022-09-20T07:27:26.429Z,52.36
2022-09-20T07:29:55.783Z,52.71
2022-09-20T07:32:22.347Z,52.55
2022-09-20T07:34:48.905Z,51.01
2022-09-20T07:37:17.205Z,49.11
2022-09-20T07:39:44.648Z,47.24
2022-09-20T07:42:12.510Z,46.38
2022-09-20T07:44:39.056Z,45.78
2022-09-20T07:47:05.610Z,46.33
2022-09-20T07:49:32.232Z,47.00
2022-09-20T07:51:58.978Z,47.60
2022-09-20T07:54:25.699Z,49.14
2022-09-20T07:56:52.216Z,49.89
2022-09-20T07:59:20.062Z,49.44
2022-09-20T08:01:46.772Z,47.14
2022-09-20T08:04:13.885Z,46.69
2022-09-20T08:06:42.524Z,45.44
2022-09-20T08:09:11.410Z,45.53
2022-09-20T08:11:39.110Z,45.97
2022-09-20T08:14:07.751Z,47.92
2022-09-20T08:16:40.399Z,47.72
2022-09-20T08:19:07.156Z,47.30
2022-09-20T08:21:35.399Z,47.18
2022-09-20T08:24:02.238Z,46.58
2022-09-20T08:26:29.651Z,46.48
2022-09-20T08:28:57.796Z,47.20
2022-09-20T08:31:26.274Z,46.65
2022-09-20T08:33:54.460Z,47.41
2022-09-20T08:36:22.770Z,46.29
2022-09-20T08:41:42.255Z,44.38
2022-09-20T08:44:15.290Z,43.90
2022-09-20T08:46:46.737Z,43.22
2022-09-20T08:49:19.134Z,43.76
2022-09-20T08:51:48.653Z,44.43
2022-09-20T08:54:15.371Z,46.56
2022-09-20T08:56:42.810Z,47.24
2022-09-20T08:59:15.048Z,45.53
2022-09-20T09:01:41.831Z,46.24
2022-09-20T09:04:14.865Z,46.60
2022-09-20T09:06:42.594Z,45.54
2022-09-20T09:09:39.025Z,44.81
2022-09-20T09:12:09.272Z,44.67
2022-09-20T09:14:54.593Z,45.19
2022-09-20T09:17:30.462Z,42.95
2022-09-20T09:20:41.261Z,42.99
2022-09-20T09:23:24.692Z,43.36
2022-09-20T09:26:01.313Z,42.08
2022-09-20T09:29:19.569Z,42.38
2022-09-20T09:31:52.809Z,44.08
2022-09-20T09:34:40.892Z,45.30
2022-09-20T09:37:28.742Z,45.38
2022-09-20T09:40:46.429Z,46.19
2022-09-20T09:43:36.190Z,48.90
2022-09-20T09:46:39.981Z,48.66
2022-09-20T09:49:29.571Z,48.35
2022-09-20T09:52:33.983Z,47.68
2022-09-20T09:55:32.328Z,46.05
2022-09-20T10:01:41.026Z,44.41
2022-09-20T10:04:43.568Z,44.88
2022-09-20T10:07:36.061Z,43.13
2022-09-20T10:10:46.157Z,41.87
2022-09-20T10:13:45.979Z,40.27
2022-09-20T10:16:56.135Z,40.77
2022-09-20T10:20:21.993Z,41.78
2022-09-20T10:23:51.494Z,42.48
2022-09-20T10:27:14.021Z,40.92
2022-09-20T10:30:35.605Z,41.88
2022-09-20T10:33:33.143Z,41.57
2022-09-20T10:36:42.046Z,41.55
2022-09-20T10:39:47.174Z,41.84
2022-09-20T10:42:40.400Z,43.43
2022-09-20T10:45:50.886Z,43.88
2022-09-20T10:48:35.832Z,44.79
2022-09-20T10:51:34.259Z,46.09
2022-09-20T10:54:42.876Z,46.69
2022-09-20T11:04:46.615Z,44.59
2022-09-20T11:07:58.590Z,45.37
2022-09-20T11:10:48.661Z,45.08
2022-09-20T11:13:34.163Z,45.52
2022-09-20T11:16:23.883Z,43.51
2022-09-20T11:22:36.611Z,42.95
2022-09-20T11:25:47.987Z,42.58
2022-09-20T11:28:33.788Z,41.01
2022-09-20T11:31:13.126Z,42.02
2022-09-20T11:34:06.895Z,43.13
2022-09-20T11:39:39.634Z,45.39
2022-09-20T11:46:27.712Z,46.50
2022-09-20T11:58:18.016Z,48.18
2022-09-20T12:00:48.304Z,47.05
2022-09-20T12:03:31.226Z,47.43
2022-09-20T12:06:00.411Z,46.84
2022-09-20T12:08:31.250Z,45.52
2022-09-20T12:11:01.949Z,44.78
2022-09-20T12:13:28.743Z,44.45
2022-09-20T12:16:02.827Z,44.67
2022-09-20T12:18:46.751Z,44.17
2022-09-20T12:21:16.475Z,42.26
2022-09-20T12:24:12.782Z,41.39
2022-09-20T12:26:42.658Z,40.89
2022-09-20T12:29:52.574Z,41.39
2022-09-20T12:32:45.902Z,42.03
2022-09-20T12:35:55.415Z,41.27
2022-09-20T12:38:36.838Z,41.84
2022-09-20T12:41:27.570Z,41.99
2022-09-20T12:43:59.762Z,40.85
2022-09-20T12:46:32.512Z,39.86
2022-09-20T12:49:25.519Z,39.87
2022-09-20T12:51:52.729Z,39.66
2022-09-20T12:54:27.062Z,39.81
2022-09-20T12:56:55.643Z,40.58
2022-09-20T12:59:26.147Z,40.30
2022-09-20T13:01:53.363Z,39.08
2022-09-20T13:04:53.377Z,39.21
2022-09-20T13:07:36.430Z,39.18
2022-09-20T13:10:22.819Z,38.71
2022-09-20T13:12:54.720Z,39.11
2022-09-20T13:15:24.916Z,39.52
2022-09-20T13:17:54.944Z,38.97
2022-09-20T13:20:24.330Z,39.62
2022-09-20T13:22:56.023Z,38.97
2022-09-20T13:25:30.601Z,39.03
2022-09-20T13:28:05.636Z,38.49
2022-09-20T13:30:32.442Z,38.55
2022-09-20T13:33:20.838Z,39.29
2022-09-20T13:35:50.852Z,38.80
2022-09-20T13:38:18.747Z,39.31
2022-09-20T13:40:50.532Z,38.86
2022-09-20T13:43:26.522Z,38.53
2022-09-20T13:45:55.927Z,38.95
2022-09-20T13:48:25.952Z,39.41
2022-09-20T13:50:59.904Z,39.25
2022-09-20T13:53:45.039Z,39.28
2022-09-20T13:56:20.567Z,39.58
2022-09-20T13:58:48.940Z,41.53
2022-09-20T14:01:27.237Z,41.20
2022-09-20T14:03:54.220Z,39.46
2022-09-20T14:06:25.094Z,38.75
2022-09-20T14:08:51.767Z,39.57
2022-09-20T14:11:23.242Z,38.39
2022-09-20T14:13:51.454Z,38.74
2022-09-20T14:16:20.128Z,39.15
2022-09-20T14:18:53.492Z,38.94
2022-09-20T14:21:23.515Z,36.96
2022-09-20T14:23:51.952Z,37.67
2022-09-20T14:26:26.684Z,36.16
2022-09-20T14:28:54.135Z,36.21
2022-09-20T14:31:26.302Z,36.23
2022-09-20T14:33:57.125Z,36.67
2022-09-20T14:36:29.173Z,37.12
2022-09-20T14:38:59.092Z,36.68
2022-09-20T14:41:36.502Z,37.50
2022-09-20T14:44:05.863Z,37.99
2022-09-20T14:52:09.848Z,38.04
2022-09-20T14:53:50.238Z,38.95
2022-09-20T14:56:52.635Z,39.17
2022-09-20T15:02:50.511Z,39.05
2022-09-20T15:05:45.791Z,39.56
2022-09-20T15:08:19.108Z,41.96
2022-09-20T15:10:51.007Z,43.58
2022-09-20T15:13:19.282Z,43.40
2022-09-20T15:15:49.682Z,44.65
2022-09-20T15:18:20.532Z,44.37
2022-09-20T15:20:51.340Z,44.57
2022-09-20T15:23:37.541Z,44.46
2022-09-20T15:26:04.659Z,45.02
2022-09-20T15:28:35.245Z,44.86
2022-09-20T15:31:02.294Z,43.98
2022-09-20T15:33:31.125Z,45.09
2022-09-20T15:35:58.073Z,44.27
2022-09-20T15:38:45.555Z,44.14
2022-09-20T15:44:05.033Z,45.81
2022-09-20T15:46:32.311Z,45.51
2022-09-20T15:49:09.122Z,45.80
2022-09-20T15:51:41.358Z,46.56
2022-09-20T15:54:26.370Z,46.26
2022-09-20T15:56:53.020Z,46.35
2022-09-20T15:59:22.206Z,46.27
2022-09-20T16:01:49.298Z,45.69
2022-09-20T16:04:17.420Z,45.87
2022-09-20T16:06:46.078Z,45.53
2022-09-20T16:09:13.344Z,46.60
2022-09-20T16:11:40.401Z,47.01
2022-09-20T16:14:07.889Z,48.18
2022-09-20T16:16:40.392Z,47.60
2022-09-20T16:19:07.604Z,48.03
2022-09-20T16:21:36.582Z,47.63
2022-09-20T16:24:06.335Z,48.13
2022-09-20T16:26:34.039Z,48.44
2022-09-20T16:29:01.213Z,47.92
2022-09-20T16:31:34.269Z,48.22
2022-09-20T16:34:03.927Z,48.52
2022-09-20T16:36:30.845Z,49.14
2022-09-20T16:38:58.141Z,49.99
2022-09-20T16:41:26.420Z,49.63
2022-09-20T16:43:53.675Z,49.33
2022-09-20T16:46:20.626Z,49.13
2022-09-20T16:48:51.377Z,49.89
2022-09-20T16:51:19.377Z,50.10
2022-09-20T16:53:46.568Z,49.70
2022-09-20T16:56:21.331Z,50.45
2022-09-20T16:58:49.827Z,49.94
2022-09-20T17:01:18.173Z,50.41
2022-09-20T17:03:45.777Z,50.86
2022-09-20T17:06:12.918Z,50.97
2022-09-20T17:08:41.849Z,51.01
2022-09-20T17:11:10.385Z,50.96
2022-09-20T17:13:37.810Z,51.12
2022-09-20T17:16:06.389Z,50.96
2022-09-20T17:18:33.057Z,52.37
2022-09-20T17:21:04.771Z,52.26
2022-09-20T17:23:32.258Z,52.29
2022-09-20T17:26:04.721Z,52.46
2022-09-20T17:28:34.988Z,52.78
2022-09-20T17:31:01.853Z,53.00
2022-09-20T17:33:28.842Z,53.96
2022-09-20T17:35:55.368Z,53.57
2022-09-20T17:38:21.917Z,53.28
2022-09-20T17:40:57.899Z,53.18
2022-09-20T17:43:26.303Z,52.79
2022-09-20T17:45:52.944Z,52.99
2022-09-20T17:48:19.557Z,53.48
2022-09-20T17:50:57.752Z,54.14
2022-09-20T17:53:26.505Z,54.81
2022-09-20T17:55:55.610Z,55.34
2022-09-20T17:58:29.057Z,55.61
2022-09-20T18:01:04.600Z,55.93
2022-09-20T18:03:37.812Z,55.88
2022-09-20T18:06:11.271Z,56.24
2022-09-20T18:08:37.996Z,56.87
2022-09-20T18:11:07.197Z,56.88
2022-09-20T18:13:59.597Z,57.02
2022-09-20T18:16:29.284Z,57.23
2022-09-20T18:18:56.224Z,56.80
2022-09-20T18:21:24.813Z,56.79
2022-09-20T18:23:52.000Z,57.08
2022-09-20T18:26:22.086Z,57.38
2022-09-20T18:28:53.617Z,57.42
2022-09-20T18:31:22.664Z,57.62
2022-09-20T18:33:54.640Z,58.60
2022-09-20T18:36:22.266Z,59.11
2022-09-20T18:38:48.906Z,58.74
2022-09-20T18:41:15.555Z,58.64
2022-09-20T18:43:44.742Z,58.74
2022-09-20T18:46:11.682Z,58.59
2022-09-20T18:48:38.292Z,58.43
2022-09-20T18:51:09.528Z,58.86
2022-09-20T18:53:37.506Z,59.34
2022-09-20T18:56:08.613Z,58.87
2022-09-20T18:58:38.837Z,58.82
2022-09-20T19:01:24.896Z,59.33
2022-09-20T19:04:03.075Z,59.06
2022-09-20T19:06:39.515Z,59.35
2022-09-20T19:09:13.088Z,59.25
2022-09-20T19:11:49.108Z,59.42
2022-09-20T19:14:22.072Z,58.67
2022-09-20T19:16:55.779Z,59.75
2022-09-20T19:19:31.411Z,59.81
2022-09-20T19:22:16.570Z,59.55
2022-09-20T19:25:10.432Z,59.92
2022-09-20T19:27:44.209Z,59.70
2022-09-20T19:30:14.074Z,59.86
2022-09-20T19:32:48.579Z,60.42
2022-09-20T19:35:19.582Z,60.41
2022-09-20T19:38:01.833Z,59.83
2022-09-20T19:40:39.279Z,59.86
2022-09-20T19:43:22.980Z,60.07
2022-09-20T19:45:59.735Z,60.24
2022-09-20T19:48:39.685Z,59.82
2022-09-20T19:51:10.787Z,59.21
2022-09-20T19:53:41.678Z,59.63
2022-09-20T19:56:23.987Z,59.50
2022-09-20T19:58:51.501Z,58.00
2022-09-20T20:01:21.717Z,57.38
2022-09-20T20:03:49.160Z,58.08
2022-09-20T20:06:26.730Z,58.31
2022-09-20T20:09:03.467Z,58.67
2022-09-20T20:11:42.444Z,58.89
2022-09-20T20:14:18.901Z,58.15
2022-09-20T20:16:57.646Z,57.76
2022-09-20T20:19:41.608Z,57.83
2022-09-20T20:22:25.345Z,58.74
2022-09-20T20:24:54.248Z,58.36
2022-09-20T20:27:21.195Z,58.65
2022-09-20T20:29:50.253Z,58.13
2022-09-20T20:32:17.188Z,57.89
2022-09-20T20:34:43.794Z,58.36
2022-09-20T20:37:10.341Z,58.94
2022-09-20T20:39:39.646Z,59.51
2022-09-20T20:42:13.513Z,59.45
2022-09-20T20:44:41.998Z,59.67
2022-09-20T20:47:08.567Z,60.47
2022-09-20T20:49:43.630Z,60.52
2022-09-20T20:52:10.293Z,60.55
2022-09-20T20:54:44.072Z,60.61
2022-09-20T20:57:15.301Z,60.14
2022-09-20T21:00:00.567Z,60.42
2022-09-20T21:02:32.522Z,59.80
2022-09-20T21:18:50.026Z,60.28
2022-09-20T21:21:53.906Z,60.69
2022-09-20T21:24:53.362Z,60.72
2022-09-20T21:30:23.095Z,60.88
2022-09-20T21:32:56.067Z,61.14
2022-09-20T21:35:29.056Z,61.58
2022-09-20T21:37:57.262Z,61.27
2022-09-20T21:40:34.965Z,61.55
2022-09-20T21:43:03.199Z,61.83
2022-09-20T21:45:34.062Z,62.04
2022-09-20T21:48:07.419Z,61.99
2022-09-20T21:50:41.342Z,62.00
2022-09-20T21:56:27.298Z,62.31
2022-09-20T22:02:01.687Z,62.05
2022-09-20T22:04:31.781Z,62.29
2022-09-20T22:07:00.184Z,62.46
2022-09-20T22:09:32.799Z,62.41
2022-09-20T22:12:08.054Z,62.38
2022-09-20T22:14:45.525Z,62.79
2022-09-20T22:17:34.246Z,63.00
2022-09-20T22:20:19.221Z,62.97
2022-09-20T22:22:57.916Z,63.25
2022-09-20T22:25:37.060Z,63.34
2022-09-20T22:28:10.771Z,63.56
2022-09-20T22:30:46.232Z,63.62
2022-09-20T22:33:56.817Z,63.80
2022-09-20T22:36:32.270Z,63.94
2022-09-20T22:39:01.793Z,63.72
2022-09-20T22:41:30.397Z,63.51
2022-09-20T22:43:57.350Z,63.27
2022-09-20T22:46:26.211Z,63.19
2022-09-20T22:48:53.496Z,63.21
2022-09-20T22:51:23.577Z,63.09
2022-09-20T22:53:55.701Z,63.77
2022-09-20T22:56:40.996Z,63.75
2022-09-20T22:59:10.738Z,63.82
2022-09-20T23:01:45.928Z,63.85
2022-09-20T23:04:16.396Z,63.92
2022-09-20T23:06:53.159Z,63.84
2022-09-20T23:09:54.989Z,64.13
2022-09-20T23:12:44.488Z,64.34
2022-09-20T23:15:14.373Z,64.33
2022-09-20T23:17:49.729Z,64.55
2022-09-20T23:20:19.687Z,64.77
2022-09-20T23:22:46.736Z,64.71
2022-09-20T23:25:28.015Z,64.42
2022-09-20T23:28:04.785Z,64.53
2022-09-20T23:30:36.248Z,64.41
2022-09-20T23:33:23.817Z,64.06
2022-09-20T23:35:58.454Z,63.81
2022-09-20T23:38:29.313Z,63.99
2022-09-20T23:41:04.364Z,63.92
2022-09-20T23:43:42.268Z,64.03
2022-09-20T23:46:10.727Z,64.01
2022-09-20T23:48:38.650Z,64.25
2022-09-20T23:51:09.869Z,64.76
2022-09-20T23:53:54.214Z,65.32
2022-09-20T23:56:24.058Z,65.53
2022-09-20T23:59:20.102Z,65.51
